sensor_id;sensor_type;location;lat;lon;timestamp;pressure;altitude;pressure_sealevel;temperature;humidity
83122;BME280;73002;47.238;9.006;2023-10-19T08:40:21;93184.38;;;19.68;52.61
83122;BME280;73002;47.238;9.006;2023-10-19T08:42:48;93182.63;;;19.82;52.29
83122;BME280;73002;47.238;9.006;2023-10-19T08:45:14;93185.41;;;20.10;52.08
83122;BME280;73002;47.238;9.006;2023-10-19T09:13:43;93188.00;;;21.55;51.37
83122;BME280;73002;47.238;9.006;2023-10-19T09:16:10;93179.91;;;21.88;49.76
83122;BME280;73002;47.238;9.006;2023-10-19T09:18:37;93165.47;;;21.94;49.32
83122;BME280;73002;47.238;9.006;2023-10-19T09:21:03;93165.94;;;21.96;48.30
83122;BME280;73002;47.238;9.006;2023-10-19T09:23:33;93174.31;;;22.12;47.71
83122;BME280;73002;47.238;9.006;2023-10-19T09:26:00;93150.50;;;21.90;47.97
83122;BME280;73002;47.238;9.006;2023-10-19T09:28:30;93140.94;;;21.66;48.61
83122;BME280;73002;47.238;9.006;2023-10-19T09:30:59;93139.81;;;21.44;48.49
83122;BME280;73002;47.238;9.006;2023-10-19T09:33:26;93149.72;;;21.75;48.08
83122;BME280;73002;47.238;9.006;2023-10-19T09:38:18;93131.34;;;22.29;49.77
83122;BME280;73002;47.238;9.006;2023-10-19T09:40:54;93133.53;;;22.13;49.18
83122;BME280;73002;47.238;9.006;2023-10-19T09:46:01;93140.59;;;21.81;49.30
83122;BME280;73002;47.238;9.006;2023-10-19T09:48:32;93130.16;;;21.76;48.90
83122;BME280;73002;47.238;9.006;2023-10-19T09:51:01;93131.72;;;22.00;48.35
83122;BME280;73002;47.238;9.006;2023-10-19T09:53:29;93141.47;;;21.91;49.12
83122;BME280;73002;47.238;9.006;2023-10-19T09:55:59;93136.88;;;21.82;48.73
83122;BME280;73002;47.238;9.006;2023-10-19T10:21:24;93094.66;;;23.08;46.99
83122;BME280;73002;47.238;9.006;2023-10-19T10:23:52;93092.22;;;23.37;48.71
83122;BME280;73002;47.238;9.006;2023-10-19T10:26:22;93092.38;;;23.32;48.69
83122;BME280;73002;47.238;9.006;2023-10-19T10:37:06;93101.78;;;23.56;47.82
83122;BME280;73002;47.238;9.006;2023-10-19T10:39:36;93094.03;;;23.86;45.18
83122;BME280;73002;47.238;9.006;2023-10-19T10:42:07;93083.81;;;23.53;46.54
83122;BME280;73002;47.238;9.006;2023-10-19T10:44:49;93078.97;;;23.37;46.44
83122;BME280;73002;47.238;9.006;2023-10-19T10:47:22;93069.31;;;23.59;47.02
83122;BME280;73002;47.238;9.006;2023-10-19T10:49:54;93066.97;;;23.49;46.18
83122;BME280;73002;47.238;9.006;2023-10-19T10:52:36;93072.59;;;23.56;46.67
83122;BME280;73002;47.238;9.006;2023-10-19T10:55:10;93065.88;;;23.67;47.23
83122;BME280;73002;47.238;9.006;2023-10-19T10:57:40;93067.31;;;23.82;45.15
83122;BME280;73002;47.238;9.006;2023-10-19T11:00:07;93065.59;;;24.04;46.57
83122;BME280;73002;47.238;9.006;2023-10-19T11:02:43;93054.03;;;23.99;44.56
83122;BME280;73002;47.238;9.006;2023-10-19T11:05:11;93058.81;;;24.32;45.78
83122;BME280;73002;47.238;9.006;2023-10-19T11:07:40;93054.88;;;24.47;45.13
83122;BME280;73002;47.238;9.006;2023-10-19T11:10:06;93043.63;;;24.50;45.74
83122;BME280;73002;47.238;9.006;2023-10-19T11:12:32;93042.81;;;24.50;45.42
83122;BME280;73002;47.238;9.006;2023-10-19T11:15:00;93035.03;;;24.45;43.49
83122;BME280;73002;47.238;9.006;2023-10-19T11:17:28;93043.31;;;24.43;44.69
83122;BME280;73002;47.238;9.006;2023-10-19T11:19:57;93038.53;;;24.28;46.09
83122;BME280;73002;47.238;9.006;2023-10-19T11:22:24;93034.91;;;24.24;45.08
83122;BME280;73002;47.238;9.006;2023-10-19T11:24:53;93020.28;;;23.74;44.72
83122;BME280;73002;47.238;9.006;2023-10-19T11:27:24;93032.16;;;23.85;44.35
83122;BME280;73002;47.238;9.006;2023-10-19T11:29:57;93037.91;;;23.43;45.80
83122;BME280;73002;47.238;9.006;2023-10-19T11:55:52;93038.81;;;23.04;47.33
83122;BME280;73002;47.238;9.006;2023-10-19T11:58:17;93041.88;;;22.97;46.93
83122;BME280;73002;47.238;9.006;2023-10-19T12:00:42;93028.63;;;22.97;46.84
83122;BME280;73002;47.238;9.006;2023-10-19T12:05:37;93034.31;;;23.39;47.53
83122;BME280;73002;47.238;9.006;2023-10-19T12:08:03;93033.38;;;23.35;46.72
83122;BME280;73002;47.238;9.006;2023-10-19T12:10:28;93026.06;;;23.67;45.73
83122;BME280;73002;47.238;9.006;2023-10-19T12:13:06;93032.94;;;23.77;46.10
83122;BME280;73002;47.238;9.006;2023-10-19T12:15:33;93027.75;;;24.15;45.55
83122;BME280;73002;47.238;9.006;2023-10-19T12:55:07;92982.50;;;24.03;45.94
83122;BME280;73002;47.238;9.006;2023-10-19T12:57:34;92991.38;;;23.98;46.00
83122;BME280;73002;47.238;9.006;2023-10-19T13:00:00;92985.03;;;23.65;46.41
83122;BME280;73002;47.238;9.006;2023-10-19T13:02:28;92977.19;;;23.68;46.92
83122;BME280;73002;47.238;9.006;2023-10-19T13:04:55;92997.03;;;23.88;46.47
83122;BME280;73002;47.238;9.006;2023-10-19T13:17:32;92979.72;;;23.47;46.68
83122;BME280;73002;47.238;9.006;2023-10-19T13:22:23;92985.50;;;23.67;46.83
83122;BME280;73002;47.238;9.006;2023-10-19T13:27:15;92981.28;;;23.22;46.66
83122;BME280;73002;47.238;9.006;2023-10-19T13:29:40;92958.19;;;23.57;45.86
83122;BME280;73002;47.238;9.006;2023-10-19T13:32:07;92947.56;;;23.49;46.04
83122;BME280;73002;47.238;9.006;2023-10-19T13:36:57;92946.25;;;22.68;48.37
83122;BME280;73002;47.238;9.006;2023-10-19T13:39:23;92950.47;;;22.77;48.28
83122;BME280;73002;47.238;9.006;2023-10-19T13:41:53;92949.06;;;22.80;48.44
83122;BME280;73002;47.238;9.006;2023-10-19T13:44:18;92934.13;;;22.93;47.89
83122;BME280;73002;47.238;9.006;2023-10-19T13:46:46;92928.66;;;22.98;48.06
83122;BME280;73002;47.238;9.006;2023-10-19T13:49:12;92922.59;;;22.97;48.21
83122;BME280;73002;47.238;9.006;2023-10-19T13:51:41;92920.69;;;22.72;48.41
83122;BME280;73002;47.238;9.006;2023-10-19T13:54:08;92907.75;;;22.88;48.16
83122;BME280;73002;47.238;9.006;2023-10-19T13:56:33;92901.50;;;22.92;47.66
83122;BME280;73002;47.238;9.006;2023-10-19T13:58:59;92902.25;;;22.58;48.03
83122;BME280;73002;47.238;9.006;2023-10-19T14:01:24;92904.69;;;22.28;49.05
83122;BME280;73002;47.238;9.006;2023-10-19T14:03:54;92900.84;;;22.43;49.34
83122;BME280;73002;47.238;9.006;2023-10-19T14:09:18;92895.59;;;22.95;48.59
83122;BME280;73002;47.238;9.006;2023-10-19T14:11:43;92887.69;;;23.13;48.07
83122;BME280;73002;47.238;9.006;2023-10-19T14:14:12;92885.31;;;22.94;48.51
83122;BME280;73002;47.238;9.006;2023-10-19T14:16:38;92882.97;;;22.75;49.20
83122;BME280;73002;47.238;9.006;2023-10-19T14:19:04;92879.09;;;23.07;48.87
83122;BME280;73002;47.238;9.006;2023-10-19T14:21:30;92852.91;;;23.23;47.93
83122;BME280;73002;47.238;9.006;2023-10-19T14:23:56;92849.00;;;23.12;48.48
83122;BME280;73002;47.238;9.006;2023-10-19T14:26:22;92858.50;;;22.95;49.09
83122;BME280;73002;47.238;9.006;2023-10-19T14:28:47;92863.34;;;22.93;48.90
83122;BME280;73002;47.238;9.006;2023-10-19T14:31:15;92848.50;;;22.49;49.45
83122;BME280;73002;47.238;9.006;2023-10-19T14:33:42;92851.28;;;22.52;49.87
83122;BME280;73002;47.238;9.006;2023-10-19T14:36:08;92835.56;;;22.47;49.49
83122;BME280;73002;47.238;9.006;2023-10-19T14:38:34;92816.69;;;22.31;49.47
83122;BME280;73002;47.238;9.006;2023-10-19T14:41:01;92811.81;;;22.24;50.22
83122;BME280;73002;47.238;9.006;2023-10-19T14:43:30;92803.59;;;22.52;49.30
83122;BME280;73002;47.238;9.006;2023-10-19T14:45:58;92786.63;;;22.44;48.91
83122;BME280;73002;47.238;9.006;2023-10-19T14:48:24;92787.41;;;22.28;49.40
83122;BME280;73002;47.238;9.006;2023-10-19T14:53:17;92764.88;;;21.99;49.61
83122;BME280;73002;47.238;9.006;2023-10-19T14:55:46;92746.56;;;22.11;50.27
83122;BME280;73002;47.238;9.006;2023-10-19T14:58:12;92753.97;;;21.83;51.05
83122;BME280;73002;47.238;9.006;2023-10-19T15:05:39;92759.00;;;21.53;51.72
83122;BME280;73002;47.238;9.006;2023-10-19T15:08:08;92743.91;;;21.45;51.67
83122;BME280;73002;47.238;9.006;2023-10-19T15:10:40;92739.16;;;21.33;52.25
83122;BME280;73002;47.238;9.006;2023-10-19T15:13:06;92732.94;;;21.38;52.07
83122;BME280;73002;47.238;9.006;2023-10-19T15:15:31;92726.13;;;21.05;52.40
83122;BME280;73002;47.238;9.006;2023-10-19T15:17:57;92722.69;;;20.74;53.36
83122;BME280;73002;47.238;9.006;2023-10-19T15:20:27;92732.44;;;20.64;53.24
83122;BME280;73002;47.238;9.006;2023-10-19T15:30:29;92707.94;;;20.14;54.11
83122;BME280;73002;47.238;9.006;2023-10-19T15:32:54;92698.81;;;19.97;54.44
83122;BME280;73002;47.238;9.006;2023-10-19T15:35:23;92699.97;;;20.05;54.19
83122;BME280;73002;47.238;9.006;2023-10-19T15:37:50;92694.47;;;20.15;54.08
83122;BME280;73002;47.238;9.006;2023-10-19T15:40:16;92698.53;;;20.21;54.12
83122;BME280;73002;47.238;9.006;2023-10-19T15:42:43;92681.56;;;20.36;53.06
83122;BME280;73002;47.238;9.006;2023-10-19T15:45:12;92689.06;;;20.20;53.66
83122;BME280;73002;47.238;9.006;2023-10-19T15:47:41;92675.03;;;20.34;52.97
83122;BME280;73002;47.238;9.006;2023-10-19T15:50:08;92687.88;;;20.26;53.73
83122;BME280;73002;47.238;9.006;2023-10-19T15:52:34;92701.63;;;20.37;53.34
83122;BME280;73002;47.238;9.006;2023-10-19T16:05:20;92698.16;;;20.14;54.50
83122;BME280;73002;47.238;9.006;2023-10-19T16:07:46;92709.16;;;20.30;53.84
83122;BME280;73002;47.238;9.006;2023-10-19T16:10:11;92705.59;;;20.12;54.40
83122;BME280;73002;47.238;9.006;2023-10-19T16:22:28;92699.47;;;19.39;56.44
83122;BME280;73002;47.238;9.006;2023-10-19T16:24:57;92693.50;;;19.33;56.20
83122;BME280;73002;47.238;9.006;2023-10-19T16:27:22;92686.38;;;19.33;56.13
83122;BME280;73002;47.238;9.006;2023-10-19T16:29:48;92686.84;;;19.36;56.37
83122;BME280;73002;47.238;9.006;2023-10-19T16:32:13;92689.00;;;19.47;56.05
83122;BME280;73002;47.238;9.006;2023-10-19T16:34:39;92690.63;;;19.57;56.02
83122;BME280;73002;47.238;9.006;2023-10-19T16:37:07;92692.72;;;19.46;56.34
83122;BME280;73002;47.238;9.006;2023-10-19T16:39:36;92684.81;;;19.46;56.75
83122;BME280;73002;47.238;9.006;2023-10-19T16:42:02;92678.28;;;19.16;57.41
83122;BME280;73002;47.238;9.006;2023-10-19T16:44:29;92692.63;;;19.24;57.18
83122;BME280;73002;47.238;9.006;2023-10-19T16:46:55;92700.81;;;19.36;56.84
83122;BME280;73002;47.238;9.006;2023-10-19T16:49:21;92683.16;;;19.23;56.70
83122;BME280;73002;47.238;9.006;2023-10-19T16:51:49;92686.31;;;19.25;56.54
83122;BME280;73002;47.238;9.006;2023-10-19T16:54:14;92682.97;;;19.33;56.27
83122;BME280;73002;47.238;9.006;2023-10-19T16:59:16;92664.53;;;19.19;56.00
83122;BME280;73002;47.238;9.006;2023-10-19T17:01:42;92657.97;;;19.30;56.31
83122;BME280;73002;47.238;9.006;2023-10-19T17:04:08;92652.41;;;19.46;54.90
83122;BME280;73002;47.238;9.006;2023-10-19T17:06:35;92647.53;;;19.39;55.42
83122;BME280;73002;47.238;9.006;2023-10-19T17:09:18;92651.59;;;19.45;54.43
83122;BME280;73002;47.238;9.006;2023-10-19T17:11:49;92642.88;;;19.59;54.35
83122;BME280;73002;47.238;9.006;2023-10-19T17:14:20;92628.75;;;19.54;54.22
83122;BME280;73002;47.238;9.006;2023-10-19T17:16:46;92628.94;;;19.72;53.86
83122;BME280;73002;47.238;9.006;2023-10-19T17:26:48;92630.94;;;19.39;55.28
83122;BME280;73002;47.238;9.006;2023-10-19T17:29:14;92619.50;;;19.43;55.44
83122;BME280;73002;47.238;9.006;2023-10-19T17:31:39;92626.03;;;19.46;55.61
83122;BME280;73002;47.238;9.006;2023-10-19T17:34:07;92619.53;;;19.29;55.97
83122;BME280;73002;47.238;9.006;2023-10-19T17:36:32;92620.50;;;19.33;54.92
83122;BME280;73002;47.238;9.006;2023-10-19T17:38:59;92637.59;;;19.22;56.13
83122;BME280;73002;47.238;9.006;2023-10-19T17:41:25;92632.50;;;18.98;57.14
83122;BME280;73002;47.238;9.006;2023-10-19T17:46:17;92639.66;;;19.11;56.26
83122;BME280;73002;47.238;9.006;2023-10-19T17:48:44;92636.72;;;19.27;55.44
83122;BME280;73002;47.238;9.006;2023-10-19T17:51:11;92637.59;;;18.94;55.99
83122;BME280;73002;47.238;9.006;2023-10-19T17:53:38;92645.41;;;19.13;55.67
83122;BME280;73002;47.238;9.006;2023-10-19T17:56:05;92649.19;;;19.35;54.71
83122;BME280;73002;47.238;9.006;2023-10-19T17:58:34;92650.25;;;19.48;54.74
83122;BME280;73002;47.238;9.006;2023-10-19T18:01:02;92654.16;;;19.50;54.39
83122;BME280;73002;47.238;9.006;2023-10-19T18:03:30;92638.09;;;19.61;53.93
83122;BME280;73002;47.238;9.006;2023-10-19T18:08:31;92630.84;;;19.66;54.57
83122;BME280;73002;47.238;9.006;2023-10-19T18:10:58;92622.78;;;19.77;54.46
83122;BME280;73002;47.238;9.006;2023-10-19T18:13:27;92608.50;;;19.64;53.66
83122;BME280;73002;47.238;9.006;2023-10-19T18:15:52;92632.16;;;19.69;53.50
83122;BME280;73002;47.238;9.006;2023-10-19T18:18:22;92627.81;;;19.87;53.20
83122;BME280;73002;47.238;9.006;2023-10-19T18:23:17;92624.22;;;19.69;53.50
83122;BME280;73002;47.238;9.006;2023-10-19T18:25:43;92610.47;;;19.72;53.00
83122;BME280;73002;47.238;9.006;2023-10-19T18:28:09;92625.16;;;19.87;52.61
83122;BME280;73002;47.238;9.006;2023-10-19T18:30:34;92629.97;;;19.85;52.81
83122;BME280;73002;47.238;9.006;2023-10-19T18:35:26;92626.59;;;19.57;53.47
83122;BME280;73002;47.238;9.006;2023-10-19T18:37:54;92630.94;;;19.39;54.50
83122;BME280;73002;47.238;9.006;2023-10-19T18:40:20;92641.88;;;19.32;55.55
83122;BME280;73002;47.238;9.006;2023-10-19T18:42:48;92635.44;;;19.10;55.88
83122;BME280;73002;47.238;9.006;2023-10-19T18:50:15;92631.56;;;19.08;56.42
83122;BME280;73002;47.238;9.006;2023-10-19T18:52:40;92642.47;;;18.87;56.87
83122;BME280;73002;47.238;9.006;2023-10-19T18:55:06;92636.81;;;19.22;56.21
83122;BME280;73002;47.238;9.006;2023-10-19T18:57:33;92631.63;;;19.17;56.20
83122;BME280;73002;47.238;9.006;2023-10-19T19:00:03;92622.56;;;18.95;56.68
83122;BME280;73002;47.238;9.006;2023-10-19T19:02:29;92625.09;;;18.86;56.93
83122;BME280;73002;47.238;9.006;2023-10-19T19:04:54;92640.59;;;19.02;56.42
83122;BME280;73002;47.238;9.006;2023-10-19T19:07:20;92616.41;;;19.00;56.77
83122;BME280;73002;47.238;9.006;2023-10-19T19:09:47;92629.97;;;19.34;55.84
83122;BME280;73002;47.238;9.006;2023-10-19T19:12:13;92639.13;;;19.09;56.90
83122;BME280;73002;47.238;9.006;2023-10-19T19:14:41;92638.06;;;18.83;57.65
83122;BME280;73002;47.238;9.006;2023-10-19T19:17:06;92628.78;;;18.25;58.97
83122;BME280;73002;47.238;9.006;2023-10-19T19:19:34;92629.72;;;18.15;59.41
83122;BME280;73002;47.238;9.006;2023-10-19T19:21:59;92637.31;;;18.49;58.51
83122;BME280;73002;47.238;9.006;2023-10-19T19:26:50;92641.69;;;18.87;57.19
83122;BME280;73002;47.238;9.006;2023-10-19T19:29:18;92637.28;;;18.96;56.59
83122;BME280;73002;47.238;9.006;2023-10-19T19:31:46;92626.47;;;18.84;57.25
83122;BME280;73002;47.238;9.006;2023-10-19T19:34:12;92637.00;;;18.84;57.68
83122;BME280;73002;47.238;9.006;2023-10-19T19:36:37;92635.88;;;18.71;57.84
83122;BME280;73002;47.238;9.006;2023-10-19T19:39:05;92648.09;;;18.81;57.41
83122;BME280;73002;47.238;9.006;2023-10-19T19:41:36;92635.25;;;18.93;57.10
83122;BME280;73002;47.238;9.006;2023-10-19T19:44:01;92620.19;;;18.80;57.27
83122;BME280;73002;47.238;9.006;2023-10-19T19:51:37;92589.38;;;18.66;57.06
83122;BME280;73002;47.238;9.006;2023-10-19T19:54:03;92578.22;;;18.28;57.73
83122;BME280;73002;47.238;9.006;2023-10-19T19:56:31;92577.88;;;18.62;57.21
83122;BME280;73002;47.238;9.006;2023-10-19T19:58:57;92571.59;;;18.58;57.43
83122;BME280;73002;47.238;9.006;2023-10-19T20:01:24;92554.25;;;18.43;57.92
83122;BME280;73002;47.238;9.006;2023-10-19T20:06:14;92531.72;;;18.09;58.66
83122;BME280;73002;47.238;9.006;2023-10-19T20:08:40;92540.78;;;18.17;58.63
83122;BME280;73002;47.238;9.006;2023-10-19T20:11:06;92526.78;;;18.35;57.76
83122;BME280;73002;47.238;9.006;2023-10-19T20:13:32;92514.59;;;18.40;57.36
83122;BME280;73002;47.238;9.006;2023-10-19T20:16:00;92520.63;;;18.40;57.67
83122;BME280;73002;47.238;9.006;2023-10-19T20:18:25;92513.97;;;18.15;58.49
83122;BME280;73002;47.238;9.006;2023-10-19T20:23:26;92503.03;;;17.94;59.58
83122;BME280;73002;47.238;9.006;2023-10-19T20:25:54;92492.13;;;17.68;60.48
83122;BME280;73002;47.238;9.006;2023-10-19T20:28:19;92506.75;;;17.74;60.69
83122;BME280;73002;47.238;9.006;2023-10-19T20:30:45;92488.03;;;17.10;62.42
83122;BME280;73002;47.238;9.006;2023-10-19T20:33:10;92498.03;;;16.89;63.17
83122;BME280;73002;47.238;9.006;2023-10-19T20:35:37;92482.63;;;16.58;64.06
83122;BME280;73002;47.238;9.006;2023-10-19T20:38:03;92471.63;;;16.99;62.62
83122;BME280;73002;47.238;9.006;2023-10-19T20:40:30;92463.69;;;17.56;60.77
83122;BME280;73002;47.238;9.006;2023-10-19T20:42:55;92459.41;;;17.27;62.00
83122;BME280;73002;47.238;9.006;2023-10-19T20:50:33;92422.28;;;17.15;62.57
83122;BME280;73002;47.238;9.006;2023-10-19T20:52:59;92439.88;;;17.33;62.28
83122;BME280;73002;47.238;9.006;2023-10-19T20:55:28;92435.56;;;17.70;60.44
83122;BME280;73002;47.238;9.006;2023-10-19T20:57:53;92428.94;;;17.26;61.91
83122;BME280;73002;47.238;9.006;2023-10-19T21:00:19;92424.06;;;17.19;61.97
83122;BME280;73002;47.238;9.006;2023-10-19T21:02:48;92418.22;;;16.90;62.82
83122;BME280;73002;47.238;9.006;2023-10-19T21:05:14;92403.38;;;16.99;62.24
83122;BME280;73002;47.238;9.006;2023-10-19T21:10:15;92411.53;;;17.77;59.60
83122;BME280;73002;47.238;9.006;2023-10-19T21:12:43;92395.75;;;17.63;59.53
83122;BME280;73002;47.238;9.006;2023-10-19T21:15:11;92407.47;;;17.71;59.49
83122;BME280;73002;47.238;9.006;2023-10-19T21:17:43;92391.41;;;17.39;60.20
83122;BME280;73002;47.238;9.006;2023-10-19T21:20:10;92380.69;;;16.89;62.14
83122;BME280;73002;47.238;9.006;2023-10-19T21:22:41;92372.34;;;17.01;62.09
83122;BME280;73002;47.238;9.006;2023-10-19T21:25:15;92381.72;;;16.88;62.13
83122;BME280;73002;47.238;9.006;2023-10-19T21:27:41;92368.13;;;16.86;62.28
83122;BME280;73002;47.238;9.006;2023-10-19T23:02:08;92198.03;;;17.94;58.45
83122;BME280;73002;47.238;9.006;2023-10-19T23:04:34;92191.16;;;18.07;57.97
83122;BME280;73002;47.238;9.006;2023-10-19T23:07:04;92192.78;;;17.80;59.08
83122;BME280;73002;47.238;9.006;2023-10-19T23:09:31;92183.34;;;17.65;59.67
